Time;durP1;ratioP1;P1;durP2;ratioP2;P2;SDS_P1;SDS_P2;PMS_P1;PMS_P2;Temp;Humidity;BMP_temperature;BMP_pressure;BME280_temperature;BME280_humidity;BME280_pressure;Samples;Min_cycle;Max_cycle;Signal;HPM_P1;HPM_P2
2021/04/19 00:02:10;;;;;;;;;29.67;26.00;;;;;;;;3554079;39;113922;-79
2021/04/19 00:04:38;;;;;;;;;28.67;24.00;;;;;;;;3554826;39;111926;-78
2021/04/19 00:07:04;;;;;;;;;29.33;25.00;;;;;;;;3554370;39;113227;-77
2021/04/19 00:09:30;;;;;;;;;24.67;24.67;;;;;;;;3553819;39;113942;-77
2021/04/19 00:11:56;;;;;;;;;29.33;24.67;;;;;;;;3554438;39;113689;-78
2021/04/19 00:14:23;;;;;;;;;25.67;24.67;;;;;;;;3556239;39;113369;-78
2021/04/19 00:16:49;;;;;;;;;31.00;26.33;;;;;;;;3553822;39;111833;-78
2021/04/19 00:19:15;;;;;;;;;29.67;26.67;;;;;;;;3554168;39;113388;-78
2021/04/19 00:21:41;;;;;;;;;25.00;20.67;;;;;;;;3553448;39;113877;-78
2021/04/19 00:24:07;;;;;;;;;28.67;23.67;;;;;;;;3554025;39;111921;-78
2021/04/19 00:26:33;;;;;;;;;33.33;27.67;;;;;;;;3554002;39;113256;-76
2021/04/19 00:28:59;;;;;;;;;25.33;24.33;;;;;;;;3553523;39;114565;-79
2021/04/19 00:31:26;;;;;;;;;29.67;28.33;;;;;;;;3554130;39;112928;-75
2021/04/19 00:33:52;;;;;;;;;32.00;28.67;;;;;;;;3553629;39;113380;-76
2021/04/19 00:36:18;;;;;;;;;28.67;26.33;;;;;;;;3556138;39;113957;-75
2021/04/19 00:38:44;;;;;;;;;29.00;26.00;;;;;;;;3553679;39;114121;-75
2021/04/19 00:41:11;;;;;;;;;32.33;25.67;;;;;;;;3553411;39;114681;-76
2021/04/19 00:43:37;;;;;;;;;30.67;25.67;;;;;;;;3553672;39;111845;-75
2021/04/19 00:46:04;;;;;;;;;24.67;23.33;;;;;;;;3553963;39;113258;-77
2021/04/19 00:48:32;;;;;;;;;28.00;23.67;;;;;;;;3553311;39;113884;-76
2021/04/19 00:50:58;;;;;;;;;26.33;22.67;;;;;;;;3553784;39;111901;-75
2021/04/19 00:53:25;;;;;;;;;27.33;24.33;;;;;;;;3553809;39;113253;-76
2021/04/19 00:55:52;;;;;;;;;24.67;22.33;;;;;;;;3553094;39;113877;-75
2021/04/19 00:58:19;;;;;;;;;24.00;23.67;;;;;;;;3556370;39;112538;-75
2021/04/19 01:00:45;;;;;;;;;26.33;23.00;;;;;;;;3553278;39;113890;-76
2021/04/19 01:03:11;;;;;;;;;34.67;22.67;;;;;;;;3553593;39;112226;-76
2021/04/19 01:05:39;;;;;;;;;25.67;22.00;;;;;;;;3553459;39;113021;-76
2021/04/19 01:08:06;;;;;;;;;21.67;20.33;;;;;;;;3553274;39;114031;-75
2021/04/19 01:10:32;;;;;;;;;26.00;23.00;;;;;;;;3553616;39;112104;-76
2021/04/19 01:12:58;;;;;;;;;22.67;22.33;;;;;;;;3553621;39;113392;-76
2021/04/19 01:15:24;;;;;;;;;21.67;21.00;;;;;;;;3553153;39;114053;-76
2021/04/19 01:17:50;;;;;;;;;22.67;18.67;;;;;;;;3553339;39;112073;-76
2021/04/19 01:20:18;;;;;;;;;25.00;25.00;;;;;;;;3555801;39;113670;-76
2021/04/19 01:22:45;;;;;;;;;23.00;22.00;;;;;;;;3553481;39;111930;-75
2021/04/19 01:25:14;;;;;;;;;26.67;23.00;;;;;;;;3553403;39;113398;-75
2021/04/19 01:27:40;;;;;;;;;28.00;25.00;;;;;;;;3552935;39;113844;-75
2021/04/19 01:30:07;;;;;;;;;23.67;23.67;;;;;;;;3553558;39;113113;-75
2021/04/19 01:32:33;;;;;;;;;23.67;22.00;;;;;;;;3553617;39;113153;-76
2021/04/19 01:34:59;;;;;;;;;29.67;25.00;;;;;;;;3553047;39;114168;-76
2021/04/19 01:37:25;;;;;;;;;28.00;23.67;;;;;;;;3553582;39;113024;-76
2021/04/19 01:39:52;;;;;;;;;27.00;22.33;;;;;;;;3549784;39;112447;-76
2021/04/19 01:42:18;;;;;;;;;34.67;25.33;;;;;;;;3555415;39;112093;-75
2021/04/19 01:44:44;;;;;;;;;27.67;24.00;;;;;;;;3553221;39;113616;-76
2021/04/19 01:47:10;;;;;;;;;23.67;22.00;;;;;;;;3552756;39;113841;-76
2021/04/19 01:49:36;;;;;;;;;26.67;22.00;;;;;;;;3553227;39;112144;-76
2021/04/19 01:52:03;;;;;;;;;25.33;22.67;;;;;;;;3553127;39;113655;-77
2021/04/19 01:54:29;;;;;;;;;24.67;21.67;;;;;;;;3552835;39;114490;-76
2021/04/19 01:56:56;;;;;;;;;22.67;20.33;;;;;;;;3553141;39;111909;-76
2021/04/19 01:59:24;;;;;;;;;24.67;20.33;;;;;;;;3553358;39;113659;-76
2021/04/19 02:01:54;;;;;;;;;26.00;25.67;;;;;;;;3555328;39;113817;-75
2021/04/19 02:04:31;;;;;;;;;34.67;26.33;;;;;;;;3553264;39;113633;-75
2021/04/19 02:07:02;;;;;;;;;18.00;15.67;;;;;;;;3552739;39;113666;-75
2021/04/19 02:09:44;;;;;;;;;25.00;21.33;;;;;;;;3553286;39;111780;-77
2021/04/19 02:12:15;;;;;;;;;26.33;25.33;;;;;;;;3553382;39;112500;-76
2021/04/19 02:14:44;;;;;;;;;27.00;25.00;;;;;;;;3553515;39;114296;-76
2021/04/19 02:17:18;;;;;;;;;28.00;22.00;;;;;;;;3554922;39;112016;-76
2021/04/19 02:19:51;;;;;;;;;23.00;19.33;;;;;;;;3552412;39;113514;-76
2021/04/19 02:22:22;;;;;;;;;30.67;21.33;;;;;;;;3550193;39;116921;-76
2021/04/19 02:24:50;;;;;;;;;25.67;22.00;;;;;;;;3553608;39;112010;-76
2021/04/19 02:27:23;;;;;;;;;21.67;18.33;;;;;;;;3552372;39;114884;-77
2021/04/19 02:29:52;;;;;;;;;26.00;20.67;;;;;;;;3552631;39;112392;-75
2021/04/19 02:32:22;;;;;;;;;27.67;24.00;;;;;;;;3554960;39;113740;-80
2021/04/19 02:34:50;;;;;;;;;29.33;27.67;;;;;;;;3550328;39;113910;-77
2021/04/19 02:37:17;;;;;;;;;26.67;26.00;;;;;;;;3552749;39;112066;-79
2021/04/19 02:39:46;;;;;;;;;24.33;22.00;;;;;;;;3554581;39;113403;-79
2021/04/19 02:42:12;;;;;;;;;30.00;25.67;;;;;;;;3554167;39;113532;-78
2021/04/19 02:44:41;;;;;;;;;27.00;25.00;;;;;;;;3554496;39;114222;-77
2021/04/19 02:47:07;;;;;;;;;26.00;23.00;;;;;;;;3555225;39;112706;-78
2021/04/19 02:49:36;;;;;;;;;27.67;25.67;;;;;;;;3552768;39;112445;-77
2021/04/19 02:52:05;;;;;;;;;30.67;23.00;;;;;;;;3553806;39;113463;-77
2021/04/19 02:54:32;;;;;;;;;25.00;21.67;;;;;;;;3553305;39;113764;-77
2021/04/19 02:57:00;;;;;;;;;29.00;23.67;;;;;;;;3553709;39;112046;-77
2021/04/19 02:59:29;;;;;;;;;30.00;26.00;;;;;;;;3553559;39;114530;-78
2021/04/19 03:02:00;;;;;;;;;28.67;22.00;;;;;;;;3553288;39;114169;-78
2021/04/19 03:04:32;;;;;;;;;24.00;24.00;;;;;;;;3554296;39;112059;-77
2021/04/19 03:07:01;;;;;;;;;22.33;20.33;;;;;;;;3554692;39;113357;-77
2021/04/19 03:09:28;;;;;;;;;29.67;23.33;;;;;;;;3556456;39;115737;-78
2021/04/19 03:11:58;;;;;;;;;31.00;27.67;;;;;;;;3554387;39;112913;-78
2021/04/19 03:14:27;;;;;;;;;25.00;24.33;;;;;;;;3554155;39;113873;-78
2021/04/19 03:16:57;;;;;;;;;21.33;19.33;;;;;;;;3554419;39;112086;-78
2021/04/19 03:19:28;;;;;;;;;27.67;24.00;;;;;;;;3554212;39;112764;-78
2021/04/19 03:21:55;;;;;;;;;27.33;25.00;;;;;;;;3553792;39;113399;-78
2021/04/19 03:24:22;;;;;;;;;32.67;25.00;;;;;;;;3554252;39;111948;-77
2021/04/19 03:26:48;;;;;;;;;33.00;25.67;;;;;;;;3554325;39;113600;-78
2021/04/19 03:29:14;;;;;;;;;33.00;27.33;;;;;;;;3551793;39;114793;-78
2021/04/19 03:31:42;;;;;;;;;27.67;22.67;;;;;;;;3556925;39;111962;-79
2021/04/19 03:34:11;;;;;;;;;26.33;25.33;;;;;;;;3553874;39;114645;-77
2021/04/19 03:36:39;;;;;;;;;31.67;28.00;;;;;;;;3554261;39;112760;-79
2021/04/19 03:39:06;;;;;;;;;29.67;24.67;;;;;;;;3554241;39;113282;-79
2021/04/19 03:41:34;;;;;;;;;27.67;25.00;;;;;;;;3553721;39;113783;-78
2021/04/19 03:44:01;;;;;;;;;23.67;22.00;;;;;;;;3554248;39;112108;-77
2021/04/19 03:46:28;;;;;;;;;28.67;24.67;;;;;;;;3554318;39;113202;-77
2021/04/19 03:48:57;;;;;;;;;28.00;25.67;;;;;;;;3553576;39;113987;-76
2021/04/19 03:51:25;;;;;;;;;27.33;25.33;;;;;;;;3556880;39;111840;-77
2021/04/19 03:53:53;;;;;;;;;28.00;24.33;;;;;;;;3553507;39;114741;-77
2021/04/19 03:56:20;;;;;;;;;27.67;23.67;;;;;;;;3554409;39;111706;-78
2021/04/19 03:58:47;;;;;;;;;30.67;22.67;;;;;;;;3554083;39;113325;-77
2021/04/19 04:01:14;;;;;;;;;29.33;25.33;;;;;;;;3553897;39;113934;-77
2021/04/19 04:03:41;;;;;;;;;26.67;23.67;;;;;;;;3553925;39;111883;-77
2021/04/19 04:06:08;;;;;;;;;28.33;27.33;;;;;;;;3554277;39;113464;-77
2021/04/19 04:08:35;;;;;;;;;30.00;26.67;;;;;;;;3553580;39;113822;-76
2021/04/19 04:11:03;;;;;;;;;32.33;26.33;;;;;;;;3554167;39;112184;-77
2021/04/19 04:13:29;;;;;;;;;27.33;27.33;;;;;;;;3556410;39;113626;-77
2021/04/19 04:15:59;;;;;;;;;32.00;28.00;;;;;;;;3554465;39;111843;-77
2021/04/19 04:18:26;;;;;;;;;34.33;29.67;;;;;;;;3554221;39;113497;-76
2021/04/19 04:20:52;;;;;;;;;32.00;31.67;;;;;;;;3553963;39;114008;-77
2021/04/19 04:23:19;;;;;;;;;28.67;25.67;;;;;;;;3555728;39;112248;-77
2021/04/19 04:25:45;;;;;;;;;29.00;25.33;;;;;;;;3554479;39;113506;-78
2021/04/19 04:28:12;;;;;;;;;33.67;28.67;;;;;;;;3556176;39;113926;-79
2021/04/19 04:30:38;;;;;;;;;33.00;30.67;;;;;;;;3555027;39;113221;-77
2021/04/19 04:33:05;;;;;;;;;30.67;29.00;;;;;;;;3553991;39;113001;-76
2021/04/19 04:35:31;;;;;;;;;28.33;25.67;;;;;;;;3556035;39;114142;-76
2021/04/19 04:37:58;;;;;;;;;27.67;26.33;;;;;;;;3553731;39;113770;-77
2021/04/19 04:40:24;;;;;;;;;31.00;27.67;;;;;;;;3552886;39;114006;-75
2021/04/19 04:42:52;;;;;;;;;34.33;29.00;;;;;;;;3553631;39;113057;-77
2021/04/19 04:45:19;;;;;;;;;34.67;29.67;;;;;;;;3554160;39;113328;-76
2021/04/19 04:47:48;;;;;;;;;27.00;26.00;;;;;;;;3549824;39;113221;-78
2021/04/19 04:50:17;;;;;;;;;32.33;25.33;;;;;;;;3551857;39;111989;-78
2021/04/19 04:52:45;;;;;;;;;31.33;29.33;;;;;;;;3551742;39;113988;-78
2021/04/19 04:55:12;;;;;;;;;27.33;26.33;;;;;;;;3553519;39;114118;-77
2021/04/19 04:57:38;;;;;;;;;27.00;21.00;;;;;;;;3556529;39;111924;-77
2021/04/19 05:00:05;;;;;;;;;28.33;23.33;;;;;;;;3553384;39;113790;-77
2021/04/19 05:02:32;;;;;;;;;28.67;27.67;;;;;;;;3553941;39;111821;-83
2021/04/19 05:04:59;;;;;;;;;21.00;20.67;;;;;;;;3553992;39;113272;-76
2021/04/19 05:07:25;;;;;;;;;27.00;24.33;;;;;;;;3553218;39;113860;-75
2021/04/19 05:09:52;;;;;;;;;31.00;27.33;;;;;;;;3553414;39;111934;-76
2021/04/19 05:12:18;;;;;;;;;42.67;38.00;;;;;;;;3553892;39;113393;-76
2021/04/19 05:14:55;;;;;;;;;25.00;22.00;;;;;;;;3553108;39;113740;-75
2021/04/19 05:17:21;;;;;;;;;28.67;22.33;;;;;;;;3552200;39;113815;-77
2021/04/19 05:19:48;;;;;;;;;29.33;25.00;;;;;;;;3556042;39;113411;-76
2021/04/19 05:22:14;;;;;;;;;26.00;25.00;;;;;;;;3553818;39;112428;-76
2021/04/19 05:24:40;;;;;;;;;26.33;23.67;;;;;;;;3553468;39;113435;-76
2021/04/19 05:27:07;;;;;;;;;21.33;20.00;;;;;;;;3553125;39;113932;-76
2021/04/19 05:29:33;;;;;;;;;32.00;28.33;;;;;;;;3553371;39;111725;-77
2021/04/19 05:32:01;;;;;;;;;29.67;25.67;;;;;;;;3553578;39;113302;-78
2021/04/19 05:34:27;;;;;;;;;26.00;24.67;;;;;;;;3553327;39;114008;-77
2021/04/19 05:36:54;;;;;;;;;26.00;22.33;;;;;;;;3552024;39;112274;-74
2021/04/19 05:39:20;;;;;;;;;27.00;25.33;;;;;;;;3551938;39;113531;-77
2021/04/19 05:41:47;;;;;;;;;28.00;26.00;;;;;;;;3555180;39;113657;-78
2021/04/19 05:44:13;;;;;;;;;29.00;25.67;;;;;;;;3550938;39;114507;-77
2021/04/19 05:46:39;;;;;;;;;26.67;25.33;;;;;;;;3552386;39;113850;-76
2021/04/19 05:49:05;;;;;;;;;28.33;25.00;;;;;;;;3553460;39;112228;-77
2021/04/19 05:51:34;;;;;;;;;26.67;25.33;;;;;;;;3553959;39;113191;-80
2021/04/19 05:54:01;;;;;;;;;29.00;25.00;;;;;;;;3552044;39;113474;-78
2021/04/19 05:56:30;;;;;;;;;30.67;26.00;;;;;;;;3554952;39;111988;-82
2021/04/19 05:59:03;;;;;;;;;31.00;27.67;;;;;;;;3554706;39;113937;-76
2021/04/19 06:01:31;;;;;;;;;24.33;22.67;;;;;;;;3556940;39;113829;-75
2021/04/19 06:03:59;;;;;;;;;32.33;29.33;;;;;;;;3554833;39;113375;-74
2021/04/19 06:06:33;;;;;;;;;31.00;27.00;;;;;;;;3553966;39;114065;-76
2021/04/19 06:09:01;;;;;;;;;35.67;28.67;;;;;;;;3554589;39;111864;-78
2021/04/19 06:11:30;;;;;;;;;31.00;26.33;;;;;;;;3554438;39;113171;-74
2021/04/19 06:13:56;;;;;;;;;34.00;31.67;;;;;;;;3553831;39;114571;-74
2021/04/19 06:16:24;;;;;;;;;29.00;22.67;;;;;;;;3554114;39;111941;-73
2021/04/19 06:18:51;;;;;;;;;34.33;29.67;;;;;;;;3553941;39;113833;-73
2021/04/19 06:21:18;;;;;;;;;32.33;26.67;;;;;;;;3553302;39;114530;-75
2021/04/19 06:23:44;;;;;;;;;30.00;28.00;;;;;;;;3556057;39;112311;-74
2021/04/19 06:26:10;;;;;;;;;36.67;34.00;;;;;;;;3553156;39;114042;-73
2021/04/19 06:28:37;;;;;;;;;23.00;20.33;;;;;;;;3554080;39;113599;-77
2021/04/19 06:31:05;;;;;;;;;34.00;27.67;;;;;;;;3554536;39;113474;-77
2021/04/19 06:33:32;;;;;;;;;31.33;28.33;;;;;;;;3553821;39;113947;-76
2021/04/19 06:35:58;;;;;;;;;32.00;29.33;;;;;;;;3554631;39;111856;-76
2021/04/19 06:38:25;;;;;;;;;37.33;31.67;;;;;;;;3554348;39;113424;-75
2021/04/19 06:40:51;;;;;;;;;30.33;29.67;;;;;;;;3553879;39;113778;-74
2021/04/19 06:43:18;;;;;;;;;29.67;25.67;;;;;;;;3553824;39;111899;-75
2021/04/19 06:45:45;;;;;;;;;27.33;23.00;;;;;;;;3555524;39;113978;-75
2021/04/19 06:48:12;;;;;;;;;33.00;24.67;;;;;;;;3552264;39;112319;-74
2021/04/19 06:50:41;;;;;;;;;26.67;22.00;;;;;;;;3553417;39;113827;-76
2021/04/19 06:53:07;;;;;;;;;25.33;24.00;;;;;;;;3552827;39;112937;-75
2021/04/19 06:55:36;;;;;;;;;28.67;23.67;;;;;;;;3549679;39;112561;-75
2021/04/19 06:58:03;;;;;;;;;25.67;22.00;;;;;;;;3553749;39;113583;-72
2021/04/19 07:00:29;;;;;;;;;22.67;20.33;;;;;;;;3553614;39;113858;-73
2021/04/19 07:02:57;;;;;;;;;22.00;19.33;;;;;;;;3554377;39;112413;-75
2021/04/19 07:05:25;;;;;;;;;27.00;21.67;;;;;;;;3554228;39;113273;-72
2021/04/19 07:07:58;;;;;;;;;20.33;17.33;;;;;;;;3556169;39;113772;-74
2021/04/19 07:10:24;;;;;;;;;20.00;19.33;;;;;;;;3554090;39;113744;-75
2021/04/19 07:12:52;;;;;;;;;22.67;19.33;;;;;;;;3553598;39;113797;-76
2021/04/19 07:15:20;;;;;;;;;18.33;16.33;;;;;;;;3554215;39;112279;-76
2021/04/19 07:17:48;;;;;;;;;17.00;15.00;;;;;;;;3554395;39;113326;-74
2021/04/19 07:20:15;;;;;;;;;20.00;17.33;;;;;;;;3552029;39;113820;-74
2021/04/19 07:22:42;;;;;;;;;21.33;20.00;;;;;;;;3552127;39;111789;-72
2021/04/19 07:25:08;;;;;;;;;16.33;16.33;;;;;;;;3554282;39;113679;-72
2021/04/19 07:27:37;;;;;;;;;21.00;18.00;;;;;;;;3553636;39;113777;-72
2021/04/19 07:30:04;;;;;;;;;22.00;20.33;;;;;;;;3556726;39;112182;-77
2021/04/19 07:32:34;;;;;;;;;15.00;14.50;;;;;;;;3553720;39;113987;-73
2021/04/19 07:35:00;;;;;;;;;21.00;17.00;;;;;;;;3553901;39;111869;-72
2021/04/19 07:37:28;;;;;;;;;20.33;18.00;;;;;;;;3553636;39;113248;-70
2021/04/19 07:39:55;;;;;;;;;21.25;19.00;;;;;;;;3552701;39;113856;-70
2021/04/19 07:42:21;;;;;;;;;22.25;20.25;;;;;;;;3552957;39;113389;-71
2021/04/19 07:44:48;;;;;;;;;28.25;17.00;;;;;;;;3552970;39;113587;-73
2021/04/19 07:47:18;;;;;;;;;16.00;16.00;;;;;;;;3552718;39;113933;-72
2021/04/19 07:49:54;;;;;;;;;15.25;12.50;;;;;;;;3552774;39;111851;-74
2021/04/19 07:52:20;;;;;;;;;14.75;14.75;;;;;;;;3556027;39;113321;-75
2021/04/19 07:55:02;;;;;;;;;17.00;15.00;;;;;;;;3554064;39;113237;-73
2021/04/19 07:57:28;;;;;;;;;17.75;15.00;;;;;;;;3554030;39;113529;-73
2021/04/19 07:59:54;;;;;;;;;11.75;11.50;;;;;;;;3553587;39;114154;-72
2021/04/19 08:02:21;;;;;;;;;21.50;17.25;;;;;;;;3553989;39;111923;-73
2021/04/19 08:04:48;;;;;;;;;10.00;8.50;;;;;;;;3553983;39;113375;-75
2021/04/19 08:07:18;;;;;;;;;13.75;13.00;;;;;;;;3553611;39;114100;-75
2021/04/19 08:09:53;;;;;;;;;15.25;13.25;;;;;;;;3551759;39;111986;-78
2021/04/19 08:12:30;;;;;;;;;12.75;12.75;;;;;;;;3554853;39;114068;-82
2021/04/19 08:14:56;;;;;;;;;13.00;12.00;;;;;;;;3551511;39;113862;-80
2021/04/19 08:17:26;;;;;;;;;9.50;9.00;;;;;;;;3553529;39;112810;-81
2021/04/19 08:19:52;;;;;;;;;9.00;8.00;;;;;;;;3553401;39;115503;-79
2021/04/19 08:22:19;;;;;;;;;12.00;9.00;;;;;;;;3553613;39;112249;-76
2021/04/19 08:24:46;;;;;;;;;9.75;9.50;;;;;;;;3553124;39;113799;-77
2021/04/19 08:27:19;;;;;;;;;7.50;7.50;;;;;;;;3553113;39;113785;-77
2021/04/19 08:29:46;;;;;;;;;11.00;10.00;;;;;;;;3549244;39;112280;-78
2021/04/19 08:32:13;;;;;;;;;8.75;8.75;;;;;;;;3551798;39;113295;-78
2021/04/19 08:34:39;;;;;;;;;6.25;6.25;;;;;;;;3555340;39;113916;-80
2021/04/19 08:37:07;;;;;;;;;7.25;7.25;;;;;;;;3553195;39;113289;-81
2021/04/19 08:39:34;;;;;;;;;8.25;7.00;;;;;;;;3552138;39;114281;-81
2021/04/19 08:42:01;;;;;;;;;8.50;8.50;;;;;;;;3553104;39;112086;-82
2021/04/19 08:44:28;;;;;;;;;8.00;8.00;;;;;;;;3553081;39;114585;-80
2021/04/19 08:46:55;;;;;;;;;9.00;7.75;;;;;;;;3552830;39;114124;-74
2021/04/19 08:49:22;;;;;;;;;7.50;7.50;;;;;;;;3553223;39;111886;-76
2021/04/19 08:51:48;;;;;;;;;6.25;6.25;;;;;;;;3552931;39;113932;-78
2021/04/19 08:54:14;;;;;;;;;6.00;5.75;;;;;;;;3552724;39;114240;-77
2021/04/19 08:56:40;;;;;;;;;6.50;6.50;;;;;;;;3555755;39;112241;-75
2021/04/19 08:59:06;;;;;;;;;6.50;6.50;;;;;;;;3551673;39;113973;-71
2021/04/19 09:01:32;;;;;;;;;8.25;7.75;;;;;;;;3552849;39;112100;-73
2021/04/19 09:04:03;;;;;;;;;7.50;7.50;;;;;;;;3553116;39;113078;-75
2021/04/19 09:06:39;;;;;;;;;7.00;7.00;;;;;;;;3552540;39;113674;-74
2021/04/19 09:09:05;;;;;;;;;8.25;7.75;;;;;;;;3552816;39;111775;-74
2021/04/19 09:11:31;;;;;;;;;7.00;7.00;;;;;;;;3553029;39;113235;-74
2021/04/19 09:14:04;;;;;;;;;10.00;9.00;;;;;;;;3552362;39;113897;-76
2021/04/19 09:16:34;;;;;;;;;9.00;7.25;;;;;;;;3552653;39;111929;-75
2021/04/19 09:19:00;;;;;;;;;6.00;6.00;;;;;;;;3555191;39;113728;-76
2021/04/19 09:21:34;;;;;;;;;8.67;7.00;;;;;;;;3552650;39;112240;-81
2021/04/19 09:24:00;;;;;;;;;6.33;4.67;;;;;;;;3553888;39;113384;-75
2021/04/19 09:26:45;;;;;;;;;8.67;5.00;;;;;;;;3553384;39;114128;-80
2021/04/19 09:29:32;;;;;;;;;6.33;4.33;;;;;;;;3554210;39;113139;-73
2021/04/19 09:31:59;;;;;;;;;7.00;4.00;;;;;;;;3553280;39;113772;-79
2021/04/19 09:34:39;;;;;;;;;8.00;8.00;;;;;;;;3555416;39;113886;-79
2021/04/19 09:37:07;;;;;;;;;6.25;6.25;;;;;;;;3556076;39;111714;-79
2021/04/19 09:39:46;;;;;;;;;6.50;5.25;;;;;;;;3555647;39;113257;-79
2021/04/19 09:42:13;;;;;;;;;5.50;5.50;;;;;;;;3558579;39;112949;-80
2021/04/19 09:44:52;;;;;;;;;9.75;7.25;;;;;;;;3557470;39;113379;-79
2021/04/19 09:47:36;;;;;;;;;8.00;7.25;;;;;;;;3551707;39;113052;-80
2021/04/19 09:50:03;;;;;;;;;7.50;5.75;;;;;;;;3554661;39;111739;-78
2021/04/19 09:52:30;;;;;;;;;7.75;6.25;;;;;;;;3554998;39;113290;-80
2021/04/19 09:54:59;;;;;;;;;6.25;6.25;;;;;;;;3553945;39;114309;-82
2021/04/19 09:57:26;;;;;;;;;6.25;6.25;;;;;;;;3554644;39;112159;-84
2021/04/19 09:59:52;;;;;;;;;3.25;3.00;;;;;;;;3555981;39;113306;-80
2021/04/19 10:02:18;;;;;;;;;7.00;7.00;;;;;;;;3554201;39;113120;-79
2021/04/19 10:04:46;;;;;;;;;6.25;6.00;;;;;;;;3556907;39;111718;-79
2021/04/19 10:07:13;;;;;;;;;7.00;7.00;;;;;;;;3553956;39;113810;-80
2021/04/19 10:09:41;;;;;;;;;6.75;5.50;;;;;;;;3553703;39;112079;-73
2021/04/19 13:45:16;;;;;;;;;9.25;7.00;;;;;;;;3556724;39;966635;-71
2021/04/19 13:47:42;;;;;;;;;6.00;6.00;;;;;;;;3575808;39;113845;-72
2021/04/19 13:50:09;;;;;;;;;4.00;4.00;;;;;;;;3575805;39;112065;-74
2021/04/19 13:52:35;;;;;;;;;7.00;7.00;;;;;;;;3576779;39;113404;-70
2021/04/19 13:55:01;;;;;;;;;6.75;5.50;;;;;;;;3572719;39;114715;-73
2021/04/19 13:57:27;;;;;;;;;6.00;6.00;;;;;;;;3575218;39;112492;-73
2021/04/19 13:59:54;;;;;;;;;7.50;6.75;;;;;;;;3575943;39;113661;-74
2021/04/19 14:02:20;;;;;;;;;7.25;6.75;;;;;;;;3573858;39;114190;-73
2021/04/19 14:04:47;;;;;;;;;8.00;8.00;;;;;;;;3578574;39;112463;-74
2021/04/19 14:07:13;;;;;;;;;7.25;7.00;;;;;;;;3576376;39;114086;-75
2021/04/19 14:09:39;;;;;;;;;4.00;4.00;;;;;;;;3576883;39;111813;-83
2021/04/19 14:12:06;;;;;;;;;5.00;5.00;;;;;;;;3575237;39;113455;-73
2021/04/19 14:14:32;;;;;;;;;5.25;5.25;;;;;;;;3574917;39;114004;-74
2021/04/19 14:16:58;;;;;;;;;7.75;7.75;;;;;;;;3576388;39;111994;-73
2021/04/19 14:19:27;;;;;;;;;8.75;8.75;;;;;;;;3570573;39;112193;-72
2021/04/19 14:21:53;;;;;;;;;10.50;9.00;;;;;;;;3575047;39;113245;-72
2021/04/19 14:24:19;;;;;;;;;10.25;8.75;;;;;;;;3575024;39;111972;-72
2021/04/19 14:26:45;;;;;;;;;8.00;8.00;;;;;;;;3578210;39;113867;-73
2021/04/19 14:29:11;;;;;;;;;25.00;17.75;;;;;;;;3574597;39;113403;-70
2021/04/19 14:31:37;;;;;;;;;27.25;19.75;;;;;;;;3576596;39;113408;-72
2021/04/19 14:34:03;;;;;;;;;9.75;9.75;;;;;;;;3574429;39;114033;-75
2021/04/19 14:36:31;;;;;;;;;8.00;8.00;;;;;;;;3575376;39;111871;-79
2021/04/19 14:38:57;;;;;;;;;9.25;8.00;;;;;;;;3577162;39;113164;-73
2021/04/19 14:41:23;;;;;;;;;9.00;9.00;;;;;;;;3574931;39;114397;-77
2021/04/19 14:43:50;;;;;;;;;10.75;8.00;;;;;;;;3576094;39;111832;-71
2021/04/19 14:46:16;;;;;;;;;8.75;8.75;;;;;;;;3576371;39;113319;-71
2021/04/19 14:48:42;;;;;;;;;8.00;8.00;;;;;;;;3577659;39;114186;-75
2021/04/19 14:51:09;;;;;;;;;7.00;7.00;;;;;;;;3576710;39;113249;-75
2021/04/19 14:53:36;;;;;;;;;12.00;10.00;;;;;;;;3574174;39;113781;-72
2021/04/19 14:56:02;;;;;;;;;7.00;7.00;;;;;;;;3569465;39;112182;-72
2021/04/19 14:58:28;;;;;;;;;7.25;6.75;;;;;;;;3569549;39;113805;-71
2021/04/19 15:00:54;;;;;;;;;10.00;8.75;;;;;;;;3567971;39;113985;-72
2021/04/19 15:03:21;;;;;;;;;7.25;6.25;;;;;;;;3568754;39;111996;-72
2021/04/19 15:05:47;;;;;;;;;9.00;6.75;;;;;;;;3569125;39;112952;-73
2021/04/19 15:08:14;;;;;;;;;7.75;6.75;;;;;;;;3564239;39;113024;-72
2021/04/19 15:10:41;;;;;;;;;9.00;7.75;;;;;;;;3570580;39;112008;-68
2021/04/19 15:13:07;;;;;;;;;7.50;7.25;;;;;;;;3566518;39;114018;-71
2021/04/19 15:15:33;;;;;;;;;6.25;6.00;;;;;;;;3569945;39;111935;-73
2021/04/19 15:18:00;;;;;;;;;7.00;7.00;;;;;;;;3558609;39;113440;-71
2021/04/19 15:20:26;;;;;;;;;6.00;6.00;;;;;;;;3564521;39;112897;-72
2021/04/19 15:22:52;;;;;;;;;5.75;5.75;;;;;;;;3569383;39;111855;-72
2021/04/19 15:25:19;;;;;;;;;7.50;7.50;;;;;;;;3569781;39;113346;-70
2021/04/19 15:27:46;;;;;;;;;6.75;6.75;;;;;;;;3569194;39;114478;-72
2021/04/19 15:30:13;;;;;;;;;6.50;6.50;;;;;;;;3570185;39;113157;-72
2021/04/19 15:32:39;;;;;;;;;8.00;6.75;;;;;;;;3571109;39;113290;-73
2021/04/19 15:35:05;;;;;;;;;7.00;6.00;;;;;;;;3570054;39;112141;-73
2021/04/19 15:37:35;;;;;;;;;7.50;7.00;;;;;;;;3566659;39;113224;-77
2021/04/19 15:40:01;;;;;;;;;7.25;6.75;;;;;;;;3567779;39;113992;-73
2021/04/19 15:42:27;;;;;;;;;7.25;7.00;;;;;;;;3569722;39;112060;-76
2021/04/19 15:44:57;;;;;;;;;7.75;7.00;;;;;;;;3568290;39;113299;-73
2021/04/19 15:47:24;;;;;;;;;7.00;7.00;;;;;;;;3569224;39;113858;-79
2021/04/19 15:49:50;;;;;;;;;7.25;7.00;;;;;;;;3569290;39;112387;-76
2021/04/19 15:52:16;;;;;;;;;5.75;5.75;;;;;;;;3568731;39;113165;-76
2021/04/19 15:54:42;;;;;;;;;11.25;7.00;;;;;;;;3570807;39;112211;-80
2021/04/19 15:57:08;;;;;;;;;7.50;7.25;;;;;;;;3566167;39;112555;-80
2021/04/19 15:59:34;;;;;;;;;8.00;6.25;;;;;;;;3570175;39;113658;-82
2021/04/19 16:02:01;;;;;;;;;6.00;6.00;;;;;;;;3570109;39;111930;-79
2021/04/19 16:04:27;;;;;;;;;7.50;7.00;;;;;;;;3568826;39;113173;-79
2021/04/19 16:06:53;;;;;;;;;8.75;7.00;;;;;;;;3566449;39;112995;-80
2021/04/19 16:09:19;;;;;;;;;6.00;6.00;;;;;;;;3569034;39;111878;-80
2021/04/19 16:11:45;;;;;;;;;10.25;7.00;;;;;;;;3568636;39;113901;-81
2021/04/19 16:14:11;;;;;;;;;7.00;6.00;;;;;;;;3571140;39;114583;-82
2021/04/19 16:16:38;;;;;;;;;7.00;7.00;;;;;;;;3570256;39;113289;-84
2021/04/19 16:19:05;;;;;;;;;7.00;6.00;;;;;;;;3565837;39;113358;-79
2021/04/19 16:21:31;;;;;;;;;6.25;5.75;;;;;;;;3567584;39;111999;-77
2021/04/19 16:23:57;;;;;;;;;6.00;6.00;;;;;;;;3569789;39;113186;-76
2021/04/19 16:26:23;;;;;;;;;5.00;5.00;;;;;;;;3568661;39;113867;-79
2021/04/19 16:28:49;;;;;;;;;6.00;6.00;;;;;;;;3569448;39;111858;-77
2021/04/19 16:31:16;;;;;;;;;6.50;5.50;;;;;;;;3569921;39;113187;-74
2021/04/19 16:33:42;;;;;;;;;6.25;5.25;;;;;;;;3568212;39;113886;-71
2021/04/19 16:36:09;;;;;;;;;5.75;5.75;;;;;;;;3571282;39;112196;-72
2021/04/19 16:38:35;;;;;;;;;6.00;5.50;;;;;;;;3567194;39;114342;-71
2021/04/19 16:41:01;;;;;;;;;7.75;6.75;;;;;;;;3569385;39;111752;-71
2021/04/19 16:43:28;;;;;;;;;6.00;6.00;;;;;;;;3568156;39;113583;-70
2021/04/19 16:45:54;;;;;;;;;6.25;6.25;;;;;;;;3568159;39;114170;-71
2021/04/19 16:48:20;;;;;;;;;8.50;7.25;;;;;;;;3567546;39;111841;-71
2021/04/19 16:50:46;;;;;;;;;8.00;5.75;;;;;;;;3568500;39;114004;-73
2021/04/19 16:53:13;;;;;;;;;5.00;5.00;;;;;;;;3567193;39;113963;-69
2021/04/19 16:55:39;;;;;;;;;5.75;5.75;;;;;;;;3569134;39;112262;-68
2021/04/19 16:58:05;;;;;;;;;8.75;7.50;;;;;;;;3569987;39;113329;-69
2021/04/19 17:00:31;;;;;;;;;7.00;7.00;;;;;;;;3567704;39;112328;-76
2021/04/19 17:02:57;;;;;;;;;5.50;5.50;;;;;;;;3566637;39;112854;-77
2021/04/19 17:05:24;;;;;;;;;5.00;5.00;;;;;;;;3566497;39;114106;-78
2021/04/19 17:07:50;;;;;;;;;6.75;5.75;;;;;;;;3569153;39;111714;-77
2021/04/19 17:10:17;;;;;;;;;5.50;5.50;;;;;;;;3568832;39;113289;-74
2021/04/19 17:12:44;;;;;;;;;8.50;4.00;;;;;;;;3567918;39;113947;-77
2021/04/19 17:15:11;;;;;;;;;4.50;4.50;;;;;;;;3568989;39;111873;-79
2021/04/19 17:17:37;;;;;;;;;8.00;6.00;;;;;;;;3567682;39;113055;-78
2021/04/19 17:20:04;;;;;;;;;4.25;4.25;;;;;;;;3569325;39;114003;-81
2021/04/19 17:22:31;;;;;;;;;9.25;7.50;;;;;;;;3567631;39;113399;-82
2021/04/19 17:24:57;;;;;;;;;7.50;6.50;;;;;;;;3567362;39;114094;-80
2021/04/19 17:27:24;;;;;;;;;6.75;6.00;;;;;;;;3569182;39;111790;-79
2021/04/19 17:29:50;;;;;;;;;5.50;5.50;;;;;;;;3566879;39;113375;-80
2021/04/19 17:32:16;;;;;;;;;7.50;7.50;;;;;;;;3568660;39;114087;-81
2021/04/19 17:34:44;;;;;;;;;6.75;6.25;;;;;;;;3566744;39;111867;-81
2021/04/19 17:37:10;;;;;;;;;6.00;6.00;;;;;;;;3568865;39;113560;-83
2021/04/19 17:39:36;;;;;;;;;6.50;6.50;;;;;;;;3567301;39;114602;-83
2021/04/19 17:42:02;;;;;;;;;6.50;6.00;;;;;;;;3572115;39;112917;-79
2021/04/19 17:44:29;;;;;;;;;6.50;4.75;;;;;;;;3567481;39;114020;-74
2021/04/19 17:46:55;;;;;;;;;6.00;5.25;;;;;;;;3568649;39;111998;-84
2021/04/19 17:49:21;;;;;;;;;6.50;5.00;;;;;;;;3565716;39;112343;-79